Aeroporto :
LOGIN :

Iscrizione | Disclaimer

   EN    FR    IT 

 










Sommario :    VFR   VFR Marginale   IFR   IFR Intensivo   IFR Molto Intensivo
Visibilità : 
Base nubi : 
>= 8 km
>= 3000ft
5 / 8 km
1000 / 3000 ft
1500m / 5 km
500 / 1000 ft
800 / 1500m
200 / 500 ft
< 800m
< 200 ft
Simboli :   Temporali  Nebbia  Neve Forte  Precipitazioni Forti  Vento > 20 kt
SIGMETs :   Varie  Temporali  Ghiacco  Turbolenza  Onda orograficha  Ceneri Vulcaniche






- Altitudine del aeroporto : 1682 ft
- Codice IATA : VIT


LEVT - Vitoria Gasteiz

ULTIMO METAR :
  • 061700Z 05010KT 020V080 9999 FEW010 BKN030 18/14 Q1025

METARs OBSOLETI :
  • 061630Z 05010KT 360V080 9999 FEW013 BKN029 17/14 Q1025
  • 061600Z 04011KT 360V080 9999 SCT017 BKN034 17/15 Q1025
  • 061530Z 04012KT 350V070 9999 SCT017 BKN030 17/14 Q1025
  • 061500Z 03011KT 350V070 9999 FEW015 BKN033 18/15 Q1025
  • 061430Z 03013KT 350V070 9999 FEW010 SCT017 BKN033 19/15 Q1025
  • 061400Z 05012KT 360V080 9999 FEW008 BKN013 BKN033 19/15 Q1025

TAF TAF LEVT
Valido dal 06 a 12 ore il 07 a 12 ore UTC


061100Z 0612/0712 36012KT 9000 SCT010 BKN020 TX21/0712Z TN09/0705Z
TEMPO 0612/0616 3000 -RADZ BR BKN005 BKN010
TEMPO 0622/0706 BKN010
TEMPO 0700/0706 3000 BR BKN005
PROB30
TEMPO 0700/0706 1500 BR BCFG BKN003
PROB30
TEMPO 0700/0706 0800 BCFG BKN002
BECMG 0622/0624 VRB06KT



MetMap, La meteo Aeronautica in un colpo d'occhio ! - Copyright ORBIFLY Dicembre 2007 - Disclaimer

ORBIFLY MET'MAP TEAM :

Programmazione e sviluppo : Alexandra Zaïnal
Concezione : Baudouin d'Aumeries
Aiuto per la programmazione : Marc-Olivier Méhu
Supporto tecnico e logistico : Manuel Goepfert
Aiuto per la traduzione : Arnaldo La Scala

Contatto : metmap@orbifly.com




FONTI E CREDITI :

   NOAA